sensor_id;sensor_type;location;lat;lon;timestamp;P1;durP1;ratioP1;P2;durP2;ratioP2
27187;SDS011;14708;50.872;5.306;2024-01-30T00:02:14;1.85;;;1.52;;
27187;SDS011;14708;50.872;5.306;2024-01-30T00:04:39;2.47;;;1.63;;
27187;SDS011;14708;50.872;5.306;2024-01-30T00:07:05;2.17;;;1.35;;
27187;SDS011;14708;50.872;5.306;2024-01-30T00:09:31;2.65;;;1.67;;
27187;SDS011;14708;50.872;5.306;2024-01-30T00:11:57;1.88;;;1.50;;
27187;SDS011;14708;50.872;5.306;2024-01-30T00:14:24;2.63;;;1.65;;
27187;SDS011;14708;50.872;5.306;2024-01-30T00:16:51;2.92;;;1.77;;
27187;SDS011;14708;50.872;5.306;2024-01-30T00:19:17;2.38;;;1.92;;
27187;SDS011;14708;50.872;5.306;2024-01-30T00:21:43;2.53;;;1.90;;
27187;SDS011;14708;50.872;5.306;2024-01-30T00:24:09;2.80;;;1.83;;
27187;SDS011;14708;50.872;5.306;2024-01-30T00:26:35;2.83;;;1.48;;
27187;SDS011;14708;50.872;5.306;2024-01-30T00:29:01;2.97;;;1.95;;
27187;SDS011;14708;50.872;5.306;2024-01-30T00:31:27;4.70;;;1.50;;
27187;SDS011;14708;50.872;5.306;2024-01-30T00:33:53;2.33;;;1.63;;
27187;SDS011;14708;50.872;5.306;2024-01-30T00:36:19;3.83;;;1.80;;
27187;SDS011;14708;50.872;5.306;2024-01-30T00:38:44;1.83;;;1.60;;
27187;SDS011;14708;50.872;5.306;2024-01-30T00:41:11;1.95;;;1.27;;
27187;SDS011;14708;50.872;5.306;2024-01-30T00:43:36;2.08;;;1.55;;
27187;SDS011;14708;50.872;5.306;2024-01-30T00:46:02;1.33;;;1.13;;
27187;SDS011;14708;50.872;5.306;2024-01-30T00:48:28;2.60;;;1.95;;
27187;SDS011;14708;50.872;5.306;2024-01-30T00:50:54;1.65;;;1.40;;
27187;SDS011;14708;50.872;5.306;2024-01-30T00:53:20;2.80;;;1.75;;
27187;SDS011;14708;50.872;5.306;2024-01-30T00:55:45;1.63;;;1.25;;
27187;SDS011;14708;50.872;5.306;2024-01-30T00:58:12;2.00;;;1.33;;
27187;SDS011;14708;50.872;5.306;2024-01-30T01:00:38;2.65;;;1.48;;
27187;SDS011;14708;50.872;5.306;2024-01-30T01:03:04;2.25;;;1.70;;
27187;SDS011;14708;50.872;5.306;2024-01-30T01:05:30;1.40;;;1.30;;
27187;SDS011;14708;50.872;5.306;2024-01-30T01:07:57;1.95;;;1.50;;
27187;SDS011;14708;50.872;5.306;2024-01-30T01:10:23;2.00;;;1.30;;
27187;SDS011;14708;50.872;5.306;2024-01-30T01:12:49;3.17;;;1.90;;
27187;SDS011;14708;50.872;5.306;2024-01-30T01:15:15;2.08;;;1.55;;
27187;SDS011;14708;50.872;5.306;2024-01-30T01:17:41;3.15;;;1.95;;
27187;SDS011;14708;50.872;5.306;2024-01-30T01:20:07;2.60;;;1.40;;
27187;SDS011;14708;50.872;5.306;2024-01-30T01:22:35;2.33;;;1.48;;
27187;SDS011;14708;50.872;5.306;2024-01-30T01:25:03;2.22;;;1.58;;
27187;SDS011;14708;50.872;5.306;2024-01-30T01:27:32;1.75;;;1.50;;
27187;SDS011;14708;50.872;5.306;2024-01-30T01:29:59;3.05;;;2.05;;
27187;SDS011;14708;50.872;5.306;2024-01-30T01:32:25;2.05;;;1.85;;
27187;SDS011;14708;50.872;5.306;2024-01-30T01:34:51;4.00;;;1.60;;
27187;SDS011;14708;50.872;5.306;2024-01-30T01:37:18;2.38;;;1.40;;
27187;SDS011;14708;50.872;5.306;2024-01-30T01:39:46;1.53;;;1.30;;
27187;SDS011;14708;50.872;5.306;2024-01-30T01:42:12;1.92;;;1.42;;
27187;SDS011;14708;50.872;5.306;2024-01-30T01:44:39;3.00;;;1.45;;
27187;SDS011;14708;50.872;5.306;2024-01-30T01:47:05;1.80;;;1.30;;
27187;SDS011;14708;50.872;5.306;2024-01-30T01:49:31;2.45;;;1.45;;
27187;SDS011;14708;50.872;5.306;2024-01-30T01:51:57;2.15;;;1.50;;
27187;SDS011;14708;50.872;5.306;2024-01-30T01:54:25;2.30;;;1.42;;
27187;SDS011;14708;50.872;5.306;2024-01-30T01:56:52;1.60;;;1.40;;
27187;SDS011;14708;50.872;5.306;2024-01-30T01:59:18;1.60;;;1.50;;
27187;SDS011;14708;50.872;5.306;2024-01-30T02:01:45;2.13;;;1.38;;
27187;SDS011;14708;50.872;5.306;2024-01-30T02:04:14;2.93;;;1.53;;
27187;SDS011;14708;50.872;5.306;2024-01-30T02:06:41;2.72;;;1.60;;
27187;SDS011;14708;50.872;5.306;2024-01-30T02:09:07;2.20;;;1.70;;
27187;SDS011;14708;50.872;5.306;2024-01-30T02:11:34;1.80;;;1.45;;
27187;SDS011;14708;50.872;5.306;2024-01-30T02:14:03;2.05;;;1.42;;
27187;SDS011;14708;50.872;5.306;2024-01-30T02:16:29;2.90;;;1.73;;
27187;SDS011;14708;50.872;5.306;2024-01-30T02:18:56;2.00;;;1.58;;
27187;SDS011;14708;50.872;5.306;2024-01-30T02:21:22;1.73;;;1.30;;
27187;SDS011;14708;50.872;5.306;2024-01-30T02:23:48;1.70;;;1.40;;
27187;SDS011;14708;50.872;5.306;2024-01-30T02:26:15;2.70;;;1.40;;
27187;SDS011;14708;50.872;5.306;2024-01-30T02:28:41;1.45;;;1.30;;
27187;SDS011;14708;50.872;5.306;2024-01-30T02:31:07;1.83;;;1.40;;
27187;SDS011;14708;50.872;5.306;2024-01-30T02:33:33;2.83;;;1.70;;
27187;SDS011;14708;50.872;5.306;2024-01-30T02:35:59;1.60;;;1.40;;
27187;SDS011;14708;50.872;5.306;2024-01-30T02:38:25;3.80;;;1.52;;
27187;SDS011;14708;50.872;5.306;2024-01-30T02:40:51;1.65;;;1.40;;
27187;SDS011;14708;50.872;5.306;2024-01-30T02:43:18;1.90;;;1.48;;
27187;SDS011;14708;50.872;5.306;2024-01-30T02:45:44;1.70;;;1.45;;
27187;SDS011;14708;50.872;5.306;2024-01-30T02:48:10;2.20;;;1.73;;
27187;SDS011;14708;50.872;5.306;2024-01-30T02:50:37;2.47;;;1.50;;
27187;SDS011;14708;50.872;5.306;2024-01-30T02:53:02;1.60;;;1.50;;
27187;SDS011;14708;50.872;5.306;2024-01-30T02:55:29;1.70;;;1.50;;
27187;SDS011;14708;50.872;5.306;2024-01-30T02:57:54;2.42;;;1.40;;
27187;SDS011;14708;50.872;5.306;2024-01-30T03:00:21;1.65;;;1.52;;
27187;SDS011;14708;50.872;5.306;2024-01-30T03:02:46;1.90;;;1.50;;
27187;SDS011;14708;50.872;5.306;2024-01-30T03:05:12;2.13;;;1.50;;
27187;SDS011;14708;50.872;5.306;2024-01-30T03:07:38;1.92;;;1.40;;
27187;SDS011;14708;50.872;5.306;2024-01-30T03:10:04;1.95;;;1.45;;
27187;SDS011;14708;50.872;5.306;2024-01-30T03:12:31;2.15;;;1.40;;
27187;SDS011;14708;50.872;5.306;2024-01-30T03:14:57;1.90;;;1.45;;
27187;SDS011;14708;50.872;5.306;2024-01-30T03:17:23;2.38;;;1.80;;
27187;SDS011;14708;50.872;5.306;2024-01-30T03:19:49;2.03;;;1.60;;
27187;SDS011;14708;50.872;5.306;2024-01-30T03:22:16;2.42;;;1.67;;
27187;SDS011;14708;50.872;5.306;2024-01-30T03:24:42;3.47;;;2.03;;
27187;SDS011;14708;50.872;5.306;2024-01-30T03:27:08;1.65;;;1.30;;
27187;SDS011;14708;50.872;5.306;2024-01-30T03:29:34;1.83;;;1.55;;
27187;SDS011;14708;50.872;5.306;2024-01-30T03:32:01;2.67;;;1.50;;
27187;SDS011;14708;50.872;5.306;2024-01-30T03:34:29;2.10;;;1.80;;
27187;SDS011;14708;50.872;5.306;2024-01-30T03:36:54;2.72;;;1.58;;
27187;SDS011;14708;50.872;5.306;2024-01-30T03:39:20;1.90;;;1.70;;
27187;SDS011;14708;50.872;5.306;2024-01-30T03:41:47;2.40;;;1.38;;
27187;SDS011;14708;50.872;5.306;2024-01-30T03:44:12;2.65;;;1.67;;
27187;SDS011;14708;50.872;5.306;2024-01-30T03:46:38;1.58;;;1.20;;
27187;SDS011;14708;50.872;5.306;2024-01-30T03:49:04;2.03;;;1.63;;
27187;SDS011;14708;50.872;5.306;2024-01-30T03:51:29;2.10;;;1.67;;
27187;SDS011;14708;50.872;5.306;2024-01-30T03:53:55;2.63;;;2.00;;
27187;SDS011;14708;50.872;5.306;2024-01-30T03:56:21;1.83;;;1.40;;
27187;SDS011;14708;50.872;5.306;2024-01-30T03:58:46;1.80;;;1.60;;
27187;SDS011;14708;50.872;5.306;2024-01-30T04:01:15;1.70;;;1.52;;
27187;SDS011;14708;50.872;5.306;2024-01-30T04:03:41;2.40;;;1.53;;
27187;SDS011;14708;50.872;5.306;2024-01-30T04:06:08;2.03;;;1.27;;
27187;SDS011;14708;50.872;5.306;2024-01-30T04:08:34;1.27;;;1.17;;
27187;SDS011;14708;50.872;5.306;2024-01-30T04:11:06;1.50;;;1.40;;
27187;SDS011;14708;50.872;5.306;2024-01-30T04:13:32;1.50;;;1.40;;
27187;SDS011;14708;50.872;5.306;2024-01-30T04:16:01;1.58;;;1.48;;
27187;SDS011;14708;50.872;5.306;2024-01-30T04:18:27;2.03;;;1.40;;
27187;SDS011;14708;50.872;5.306;2024-01-30T04:20:54;1.98;;;1.48;;
27187;SDS011;14708;50.872;5.306;2024-01-30T04:26:42;1.95;;;1.45;;
27187;SDS011;14708;50.872;5.306;2024-01-30T04:29:08;1.85;;;1.30;;
27187;SDS011;14708;50.872;5.306;2024-01-30T04:31:36;1.40;;;1.20;;
27187;SDS011;14708;50.872;5.306;2024-01-30T04:34:02;2.28;;;1.40;;
27187;SDS011;14708;50.872;5.306;2024-01-30T04:36:27;2.72;;;1.40;;
27187;SDS011;14708;50.872;5.306;2024-01-30T04:38:53;1.40;;;1.20;;
27187;SDS011;14708;50.872;5.306;2024-01-30T04:41:20;1.98;;;1.55;;
27187;SDS011;14708;50.872;5.306;2024-01-30T04:43:46;2.20;;;1.40;;
27187;SDS011;14708;50.872;5.306;2024-01-30T04:46:12;2.30;;;1.50;;
27187;SDS011;14708;50.872;5.306;2024-01-30T04:48:37;1.73;;;1.40;;
27187;SDS011;14708;50.872;5.306;2024-01-30T04:51:03;1.52;;;1.40;;
27187;SDS011;14708;50.872;5.306;2024-01-30T04:53:30;1.80;;;1.40;;
27187;SDS011;14708;50.872;5.306;2024-01-30T04:55:57;2.10;;;1.70;;
27187;SDS011;14708;50.872;5.306;2024-01-30T04:58:23;1.33;;;1.13;;
27187;SDS011;14708;50.872;5.306;2024-01-30T05:00:49;1.58;;;1.48;;
27187;SDS011;14708;50.872;5.306;2024-01-30T05:03:17;1.52;;;1.25;;
27187;SDS011;14708;50.872;5.306;2024-01-30T05:05:44;2.05;;;1.30;;
27187;SDS011;14708;50.872;5.306;2024-01-30T05:08:11;1.83;;;1.58;;
27187;SDS011;14708;50.872;5.306;2024-01-30T05:10:36;1.85;;;1.25;;
27187;SDS011;14708;50.872;5.306;2024-01-30T05:13:02;2.25;;;1.63;;
27187;SDS011;14708;50.872;5.306;2024-01-30T05:15:28;1.38;;;1.27;;
27187;SDS011;14708;50.872;5.306;2024-01-30T05:17:54;2.45;;;1.38;;
27187;SDS011;14708;50.872;5.306;2024-01-30T05:20:21;1.67;;;1.40;;
27187;SDS011;14708;50.872;5.306;2024-01-30T05:22:47;1.75;;;1.48;;
27187;SDS011;14708;50.872;5.306;2024-01-30T05:25:13;1.60;;;1.50;;
27187;SDS011;14708;50.872;5.306;2024-01-30T05:27:39;1.48;;;1.38;;
27187;SDS011;14708;50.872;5.306;2024-01-30T05:30:05;1.65;;;1.35;;
27187;SDS011;14708;50.872;5.306;2024-01-30T05:32:31;1.38;;;1.10;;
27187;SDS011;14708;50.872;5.306;2024-01-30T05:34:57;1.20;;;1.10;;
27187;SDS011;14708;50.872;5.306;2024-01-30T05:37:23;1.40;;;1.20;;
27187;SDS011;14708;50.872;5.306;2024-01-30T05:43:07;1.35;;;1.25;;
27187;SDS011;14708;50.872;5.306;2024-01-30T05:45:33;1.63;;;1.38;;
27187;SDS011;14708;50.872;5.306;2024-01-30T05:48:00;1.85;;;1.40;;
27187;SDS011;14708;50.872;5.306;2024-01-30T05:50:26;1.30;;;1.15;;
27187;SDS011;14708;50.872;5.306;2024-01-30T05:52:52;1.85;;;1.20;;
27187;SDS011;14708;50.872;5.306;2024-01-30T05:55:18;1.75;;;1.45;;
27187;SDS011;14708;50.872;5.306;2024-01-30T05:57:44;1.55;;;1.38;;
27187;SDS011;14708;50.872;5.306;2024-01-30T06:00:10;1.65;;;1.38;;
27187;SDS011;14708;50.872;5.306;2024-01-30T06:02:36;3.03;;;1.48;;
27187;SDS011;14708;50.872;5.306;2024-01-30T06:05:01;1.42;;;1.30;;
27187;SDS011;14708;50.872;5.306;2024-01-30T06:07:28;1.83;;;1.30;;
27187;SDS011;14708;50.872;5.306;2024-01-30T06:09:54;2.15;;;1.52;;
27187;SDS011;14708;50.872;5.306;2024-01-30T06:12:19;1.75;;;1.30;;
27187;SDS011;14708;50.872;5.306;2024-01-30T06:14:46;1.40;;;1.30;;
27187;SDS011;14708;50.872;5.306;2024-01-30T06:17:14;1.20;;;1.10;;
27187;SDS011;14708;50.872;5.306;2024-01-30T06:19:40;1.58;;;1.20;;
27187;SDS011;14708;50.872;5.306;2024-01-30T06:22:06;1.45;;;1.20;;
27187;SDS011;14708;50.872;5.306;2024-01-30T06:24:32;1.50;;;1.40;;
27187;SDS011;14708;50.872;5.306;2024-01-30T06:26:59;1.48;;;1.23;;
27187;SDS011;14708;50.872;5.306;2024-01-30T06:29:26;1.98;;;1.27;;
27187;SDS011;14708;50.872;5.306;2024-01-30T06:31:51;1.42;;;1.33;;
27187;SDS011;14708;50.872;5.306;2024-01-30T06:34:18;2.58;;;1.48;;
27187;SDS011;14708;50.872;5.306;2024-01-30T06:36:44;1.33;;;1.23;;
27187;SDS011;14708;50.872;5.306;2024-01-30T06:39:10;1.58;;;1.40;;
27187;SDS011;14708;50.872;5.306;2024-01-30T06:41:37;1.52;;;1.27;;
27187;SDS011;14708;50.872;5.306;2024-01-30T06:44:03;1.45;;;1.10;;
27187;SDS011;14708;50.872;5.306;2024-01-30T06:46:33;2.05;;;1.30;;
27187;SDS011;14708;50.872;5.306;2024-01-30T06:48:59;2.13;;;1.58;;
27187;SDS011;14708;50.872;5.306;2024-01-30T06:51:24;1.60;;;1.20;;
27187;SDS011;14708;50.872;5.306;2024-01-30T06:53:50;1.40;;;1.30;;
27187;SDS011;14708;50.872;5.306;2024-01-30T06:56:16;1.65;;;1.20;;
27187;SDS011;14708;50.872;5.306;2024-01-30T07:01:14;1.92;;;1.33;;
27187;SDS011;14708;50.872;5.306;2024-01-30T07:03:46;1.55;;;1.00;;
27187;SDS011;14708;50.872;5.306;2024-01-30T07:06:13;2.08;;;1.45;;
27187;SDS011;14708;50.872;5.306;2024-01-30T07:08:39;2.35;;;1.52;;
27187;SDS011;14708;50.872;5.306;2024-01-30T07:11:05;1.73;;;1.20;;
27187;SDS011;14708;50.872;5.306;2024-01-30T07:13:31;1.45;;;1.23;;
27187;SDS011;14708;50.872;5.306;2024-01-30T07:15:57;1.23;;;1.10;;
27187;SDS011;14708;50.872;5.306;2024-01-30T07:18:23;1.80;;;1.27;;
27187;SDS011;14708;50.872;5.306;2024-01-30T07:20:49;1.88;;;1.50;;
27187;SDS011;14708;50.872;5.306;2024-01-30T07:23:16;1.50;;;1.40;;
27187;SDS011;14708;50.872;5.306;2024-01-30T07:25:45;1.30;;;1.17;;
27187;SDS011;14708;50.872;5.306;2024-01-30T07:28:14;1.27;;;1.17;;
27187;SDS011;14708;50.872;5.306;2024-01-30T07:30:43;3.30;;;1.63;;
27187;SDS011;14708;50.872;5.306;2024-01-30T07:33:09;1.95;;;1.50;;
27187;SDS011;14708;50.872;5.306;2024-01-30T07:35:35;1.30;;;1.20;;
27187;SDS011;14708;50.872;5.306;2024-01-30T07:38:01;1.60;;;1.50;;
27187;SDS011;14708;50.872;5.306;2024-01-30T07:40:27;1.50;;;1.40;;
27187;SDS011;14708;50.872;5.306;2024-01-30T07:42:53;2.65;;;1.35;;
27187;SDS011;14708;50.872;5.306;2024-01-30T07:45:19;2.05;;;1.33;;
27187;SDS011;14708;50.872;5.306;2024-01-30T07:47:49;1.20;;;1.10;;
27187;SDS011;14708;50.872;5.306;2024-01-30T07:50:18;1.30;;;1.20;;
27187;SDS011;14708;50.872;5.306;2024-01-30T07:52:44;2.08;;;1.52;;
27187;SDS011;14708;50.872;5.306;2024-01-30T07:55:12;1.63;;;1.27;;
27187;SDS011;14708;50.872;5.306;2024-01-30T07:57:38;1.48;;;1.13;;
27187;SDS011;14708;50.872;5.306;2024-01-30T08:00:05;1.63;;;1.10;;
27187;SDS011;14708;50.872;5.306;2024-01-30T08:02:32;1.08;;;0.98;;
27187;SDS011;14708;50.872;5.306;2024-01-30T08:04:58;1.40;;;1.30;;
27187;SDS011;14708;50.872;5.306;2024-01-30T08:07:23;3.47;;;1.55;;
27187;SDS011;14708;50.872;5.306;2024-01-30T08:09:50;2.38;;;1.30;;
27187;SDS011;14708;50.872;5.306;2024-01-30T08:12:16;2.72;;;1.20;;
27187;SDS011;14708;50.872;5.306;2024-01-30T08:14:43;2.38;;;1.13;;
27187;SDS011;14708;50.872;5.306;2024-01-30T08:17:08;2.20;;;1.45;;
27187;SDS011;14708;50.872;5.306;2024-01-30T08:19:34;1.50;;;1.40;;
27187;SDS011;14708;50.872;5.306;2024-01-30T08:22:00;1.40;;;1.30;;
27187;SDS011;14708;50.872;5.306;2024-01-30T08:24:26;1.33;;;1.13;;
27187;SDS011;14708;50.872;5.306;2024-01-30T08:26:56;1.35;;;1.25;;
27187;SDS011;14708;50.872;5.306;2024-01-30T08:29:23;2.15;;;1.20;;
27187;SDS011;14708;50.872;5.306;2024-01-30T08:31:49;3.63;;;1.30;;
27187;SDS011;14708;50.872;5.306;2024-01-30T08:34:15;1.70;;;1.60;;
27187;SDS011;14708;50.872;5.306;2024-01-30T08:36:41;2.08;;;1.70;;
27187;SDS011;14708;50.872;5.306;2024-01-30T08:39:07;2.75;;;1.67;;
27187;SDS011;14708;50.872;5.306;2024-01-30T08:41:33;1.50;;;1.33;;
27187;SDS011;14708;50.872;5.306;2024-01-30T08:43:59;2.55;;;1.48;;
27187;SDS011;14708;50.872;5.306;2024-01-30T08:46:25;1.63;;;1.30;;
27187;SDS011;14708;50.872;5.306;2024-01-30T08:48:50;1.45;;;1.30;;
27187;SDS011;14708;50.872;5.306;2024-01-30T08:51:16;1.42;;;1.13;;
27187;SDS011;14708;50.872;5.306;2024-01-30T08:53:42;1.65;;;1.20;;
27187;SDS011;14708;50.872;5.306;2024-01-30T08:56:08;2.30;;;1.50;;
27187;SDS011;14708;50.872;5.306;2024-01-30T08:58:34;4.90;;;0.98;;
27187;SDS011;14708;50.872;5.306;2024-01-30T09:01:00;1.50;;;1.20;;
27187;SDS011;14708;50.872;5.306;2024-01-30T09:03:26;2.30;;;1.27;;
27187;SDS011;14708;50.872;5.306;2024-01-30T09:05:52;3.63;;;1.58;;
27187;SDS011;14708;50.872;5.306;2024-01-30T09:08:18;5.45;;;1.60;;
27187;SDS011;14708;50.872;5.306;2024-01-30T09:10:44;3.28;;;2.20;;
27187;SDS011;14708;50.872;5.306;2024-01-30T09:13:10;4.75;;;1.95;;
27187;SDS011;14708;50.872;5.306;2024-01-30T09:15:35;2.25;;;1.13;;
27187;SDS011;14708;50.872;5.306;2024-01-30T09:18:01;2.53;;;1.30;;
27187;SDS011;14708;50.872;5.306;2024-01-30T09:20:27;2.72;;;1.52;;
27187;SDS011;14708;50.872;5.306;2024-01-30T09:22:53;4.63;;;1.52;;
27187;SDS011;14708;50.872;5.306;2024-01-30T09:25:19;3.97;;;1.67;;
27187;SDS011;14708;50.872;5.306;2024-01-30T09:27:45;2.75;;;1.60;;
27187;SDS011;14708;50.872;5.306;2024-01-30T09:30:11;3.70;;;1.30;;
27187;SDS011;14708;50.872;5.306;2024-01-30T09:32:39;4.07;;;1.98;;
27187;SDS011;14708;50.872;5.306;2024-01-30T09:35:05;3.22;;;1.95;;
27187;SDS011;14708;50.872;5.306;2024-01-30T09:37:31;2.35;;;1.63;;
27187;SDS011;14708;50.872;5.306;2024-01-30T09:39:57;30.23;;;3.40;;
27187;SDS011;14708;50.872;5.306;2024-01-30T09:42:28;14.73;;;4.03;;
27187;SDS011;14708;50.872;5.306;2024-01-30T09:44:57;12.90;;;3.00;;
27187;SDS011;14708;50.872;5.306;2024-01-30T09:47:24;16.25;;;3.83;;
27187;SDS011;14708;50.872;5.306;2024-01-30T09:49:51;19.48;;;4.22;;
27187;SDS011;14708;50.872;5.306;2024-01-30T09:52:17;16.95;;;4.03;;
27187;SDS011;14708;50.872;5.306;2024-01-30T09:54:44;21.02;;;5.28;;
27187;SDS011;14708;50.872;5.306;2024-01-30T09:57:11;10.15;;;3.53;;
27187;SDS011;14708;50.872;5.306;2024-01-30T09:59:37;16.58;;;4.18;;
27187;SDS011;14708;50.872;5.306;2024-01-30T10:02:03;12.98;;;3.63;;
27187;SDS011;14708;50.872;5.306;2024-01-30T10:04:29;10.30;;;3.42;;
27187;SDS011;14708;50.872;5.306;2024-01-30T10:06:56;10.00;;;3.35;;
27187;SDS011;14708;50.872;5.306;2024-01-30T10:09:23;23.13;;;4.55;;
27187;SDS011;14708;50.872;5.306;2024-01-30T10:11:51;17.20;;;4.22;;
27187;SDS011;14708;50.872;5.306;2024-01-30T10:14:16;11.88;;;4.68;;
27187;SDS011;14708;50.872;5.306;2024-01-30T10:16:45;12.27;;;3.47;;
27187;SDS011;14708;50.872;5.306;2024-01-30T10:19:11;8.30;;;4.00;;
27187;SDS011;14708;50.872;5.306;2024-01-30T10:21:37;12.45;;;4.40;;
27187;SDS011;14708;50.872;5.306;2024-01-30T10:24:02;10.73;;;2.88;;
27187;SDS011;14708;50.872;5.306;2024-01-30T10:26:29;11.32;;;3.60;;
27187;SDS011;14708;50.872;5.306;2024-01-30T10:28:58;7.82;;;3.80;;
27187;SDS011;14708;50.872;5.306;2024-01-30T10:31:24;11.07;;;3.58;;
27187;SDS011;14708;50.872;5.306;2024-01-30T10:33:50;7.80;;;3.90;;
27187;SDS011;14708;50.872;5.306;2024-01-30T10:36:16;9.27;;;3.60;;
27187;SDS011;14708;50.872;5.306;2024-01-30T10:38:44;14.32;;;4.28;;
27187;SDS011;14708;50.872;5.306;2024-01-30T10:41:12;9.38;;;4.28;;
27187;SDS011;14708;50.872;5.306;2024-01-30T10:43:40;7.97;;;3.08;;
27187;SDS011;14708;50.872;5.306;2024-01-30T10:46:18;10.90;;;3.40;;
27187;SDS011;14708;50.872;5.306;2024-01-30T10:48:46;9.15;;;4.25;;
27187;SDS011;14708;50.872;5.306;2024-01-30T10:51:22;11.18;;;3.65;;
27187;SDS011;14708;50.872;5.306;2024-01-30T10:53:49;14.43;;;3.95;;
27187;SDS011;14708;50.872;5.306;2024-01-30T10:56:16;8.02;;;3.85;;
27187;SDS011;14708;50.872;5.306;2024-01-30T10:58:43;10.18;;;3.30;;
27187;SDS011;14708;50.872;5.306;2024-01-30T11:01:09;11.18;;;3.95;;
27187;SDS011;14708;50.872;5.306;2024-01-30T11:03:35;8.25;;;3.38;;
27187;SDS011;14708;50.872;5.306;2024-01-30T11:06:02;10.80;;;3.60;;
27187;SDS011;14708;50.872;5.306;2024-01-30T11:08:28;8.50;;;3.50;;
27187;SDS011;14708;50.872;5.306;2024-01-30T11:10:57;12.75;;;2.95;;
27187;SDS011;14708;50.872;5.306;2024-01-30T11:13:30;10.25;;;3.72;;
27187;SDS011;14708;50.872;5.306;2024-01-30T11:16:06;8.93;;;3.50;;
27187;SDS011;14708;50.872;5.306;2024-01-30T11:18:32;5.80;;;2.75;;
27187;SDS011;14708;50.872;5.306;2024-01-30T11:21:00;10.10;;;3.85;;
27187;SDS011;14708;50.872;5.306;2024-01-30T11:23:27;11.30;;;3.28;;
27187;SDS011;14708;50.872;5.306;2024-01-30T11:25:53;8.95;;;4.10;;
27187;SDS011;14708;50.872;5.306;2024-01-30T11:28:21;8.23;;;3.38;;
27187;SDS011;14708;50.872;5.306;2024-01-30T11:30:48;8.35;;;3.85;;
27187;SDS011;14708;50.872;5.306;2024-01-30T12:23:56;12.93;;;4.57;;
27187;SDS011;14708;50.872;5.306;2024-01-30T12:26:23;10.30;;;4.20;;
27187;SDS011;14708;50.872;5.306;2024-01-30T12:28:50;8.38;;;3.88;;
27187;SDS011;14708;50.872;5.306;2024-01-30T12:31:24;9.52;;;4.50;;
27187;SDS011;14708;50.872;5.306;2024-01-30T12:33:52;7.60;;;4.40;;
27187;SDS011;14708;50.872;5.306;2024-01-30T12:36:17;6.95;;;3.58;;
27187;SDS011;14708;50.872;5.306;2024-01-30T12:38:43;8.82;;;3.70;;
27187;SDS011;14708;50.872;5.306;2024-01-30T12:41:09;9.07;;;4.00;;
27187;SDS011;14708;50.872;5.306;2024-01-30T12:43:36;9.05;;;3.85;;
27187;SDS011;14708;50.872;5.306;2024-01-30T12:46:02;8.93;;;3.88;;
27187;SDS011;14708;50.872;5.306;2024-01-30T12:48:28;9.30;;;3.92;;
27187;SDS011;14708;50.872;5.306;2024-01-30T12:50:57;7.05;;;3.47;;
27187;SDS011;14708;50.872;5.306;2024-01-30T12:53:24;7.40;;;3.58;;
27187;SDS011;14708;50.872;5.306;2024-01-30T12:55:50;7.97;;;3.47;;
27187;SDS011;14708;50.872;5.306;2024-01-30T12:58:16;9.75;;;4.10;;
27187;SDS011;14708;50.872;5.306;2024-01-30T13:00:41;6.05;;;3.53;;
27187;SDS011;14708;50.872;5.306;2024-01-30T13:03:09;8.25;;;3.65;;
27187;SDS011;14708;50.872;5.306;2024-01-30T13:05:35;6.38;;;2.88;;
27187;SDS011;14708;50.872;5.306;2024-01-30T13:08:01;7.00;;;3.00;;
27187;SDS011;14708;50.872;5.306;2024-01-30T13:10:28;8.15;;;3.30;;
27187;SDS011;14708;50.872;5.306;2024-01-30T13:13:11;4.75;;;2.88;;
27187;SDS011;14708;50.872;5.306;2024-01-30T13:15:37;5.63;;;3.22;;
27187;SDS011;14708;50.872;5.306;2024-01-30T13:18:03;5.90;;;3.00;;
27187;SDS011;14708;50.872;5.306;2024-01-30T13:20:32;4.67;;;2.93;;
27187;SDS011;14708;50.872;5.306;2024-01-30T13:22:57;5.05;;;3.28;;
27187;SDS011;14708;50.872;5.306;2024-01-30T13:25:23;5.55;;;2.92;;
27187;SDS011;14708;50.872;5.306;2024-01-30T13:27:49;4.93;;;3.20;;
27187;SDS011;14708;50.872;5.306;2024-01-30T13:30:17;8.63;;;3.00;;
27187;SDS011;14708;50.872;5.306;2024-01-30T13:32:42;6.38;;;2.97;;
27187;SDS011;14708;50.872;5.306;2024-01-30T13:35:09;4.78;;;2.65;;
27187;SDS011;14708;50.872;5.306;2024-01-30T13:37:35;4.53;;;2.85;;
27187;SDS011;14708;50.872;5.306;2024-01-30T13:40:01;5.22;;;2.95;;
27187;SDS011;14708;50.872;5.306;2024-01-30T13:42:34;6.47;;;3.28;;
27187;SDS011;14708;50.872;5.306;2024-01-30T13:45:01;6.78;;;2.80;;
27187;SDS011;14708;50.872;5.306;2024-01-30T13:47:27;6.38;;;3.10;;
27187;SDS011;14708;50.872;5.306;2024-01-30T13:49:53;3.38;;;2.53;;
27187;SDS011;14708;50.872;5.306;2024-01-30T13:52:18;5.15;;;2.97;;
27187;SDS011;14708;50.872;5.306;2024-01-30T13:54:44;4.57;;;3.05;;
27187;SDS011;14708;50.872;5.306;2024-01-30T13:57:10;5.47;;;2.85;;
27187;SDS011;14708;50.872;5.306;2024-01-30T13:59:37;4.13;;;2.17;;
27187;SDS011;14708;50.872;5.306;2024-01-30T14:02:04;3.70;;;2.33;;
27187;SDS011;14708;50.872;5.306;2024-01-30T14:04:30;6.90;;;2.95;;
27187;SDS011;14708;50.872;5.306;2024-01-30T14:06:56;4.68;;;2.80;;
27187;SDS011;14708;50.872;5.306;2024-01-30T14:09:22;4.20;;;2.65;;
27187;SDS011;14708;50.872;5.306;2024-01-30T14:11:48;5.97;;;3.20;;
27187;SDS011;14708;50.872;5.306;2024-01-30T14:14:14;6.72;;;2.92;;
27187;SDS011;14708;50.872;5.306;2024-01-30T14:16:39;4.57;;;2.67;;
27187;SDS011;14708;50.872;5.306;2024-01-30T14:19:05;3.78;;;2.30;;
27187;SDS011;14708;50.872;5.306;2024-01-30T14:21:31;6.30;;;2.33;;
27187;SDS011;14708;50.872;5.306;2024-01-30T14:23:58;4.60;;;2.90;;
27187;SDS011;14708;50.872;5.306;2024-01-30T14:26:24;5.32;;;2.40;;
27187;SDS011;14708;50.872;5.306;2024-01-30T14:28:49;4.05;;;2.47;;
27187;SDS011;14708;50.872;5.306;2024-01-30T14:31:16;4.13;;;2.30;;
27187;SDS011;14708;50.872;5.306;2024-01-30T14:33:43;4.60;;;2.20;;
27187;SDS011;14708;50.872;5.306;2024-01-30T14:36:09;4.55;;;2.63;;
27187;SDS011;14708;50.872;5.306;2024-01-30T14:38:35;3.08;;;1.80;;
27187;SDS011;14708;50.872;5.306;2024-01-30T14:41:00;4.93;;;1.90;;
27187;SDS011;14708;50.872;5.306;2024-01-30T14:43:28;3.13;;;2.38;;
27187;SDS011;14708;50.872;5.306;2024-01-30T14:45:54;4.28;;;1.67;;
27187;SDS011;14708;50.872;5.306;2024-01-30T14:48:20;3.80;;;1.80;;
27187;SDS011;14708;50.872;5.306;2024-01-30T14:50:45;1.75;;;1.35;;
27187;SDS011;14708;50.872;5.306;2024-01-30T14:53:11;6.03;;;2.25;;
27187;SDS011;14708;50.872;5.306;2024-01-30T14:55:37;3.22;;;1.80;;
27187;SDS011;14708;50.872;5.306;2024-01-30T14:58:03;4.20;;;2.38;;
27187;SDS011;14708;50.872;5.306;2024-01-30T15:00:29;4.68;;;2.10;;
27187;SDS011;14708;50.872;5.306;2024-01-30T15:02:55;10.48;;;3.75;;
27187;SDS011;14708;50.872;5.306;2024-01-30T15:05:21;14.50;;;4.43;;
27187;SDS011;14708;50.872;5.306;2024-01-30T15:07:46;31.95;;;7.18;;
27187;SDS011;14708;50.872;5.306;2024-01-30T15:10:13;50.63;;;13.32;;
27187;SDS011;14708;50.872;5.306;2024-01-30T15:12:39;56.65;;;14.93;;
27187;SDS011;14708;50.872;5.306;2024-01-30T15:15:06;67.82;;;17.60;;
27187;SDS011;14708;50.872;5.306;2024-01-30T15:17:32;52.85;;;14.07;;
27187;SDS011;14708;50.872;5.306;2024-01-30T15:19:58;56.88;;;16.33;;
27187;SDS011;14708;50.872;5.306;2024-01-30T15:22:25;53.20;;;13.13;;
27187;SDS011;14708;50.872;5.306;2024-01-30T15:24:51;51.92;;;13.23;;
27187;SDS011;14708;50.872;5.306;2024-01-30T15:27:17;41.03;;;12.07;;
27187;SDS011;14708;50.872;5.306;2024-01-30T15:29:45;41.78;;;10.75;;
27187;SDS011;14708;50.872;5.306;2024-01-30T15:32:11;47.92;;;13.75;;
27187;SDS011;14708;50.872;5.306;2024-01-30T15:34:36;36.42;;;11.60;;
27187;SDS011;14708;50.872;5.306;2024-01-30T15:37:02;49.33;;;12.73;;
27187;SDS011;14708;50.872;5.306;2024-01-30T15:39:28;54.83;;;14.65;;
27187;SDS011;14708;50.872;5.306;2024-01-30T15:41:55;46.35;;;14.77;;